PRIVATE WETTERSTATION BILLIGHEIM-ALLFELD                       ZURCK
Wetterdaten: Donnerstag, 29.12.2016
Datum Zeit Temp. A. Temp. A. min Temp. A. max Feuchte A. Luftdruck Regen Wind Richtung Richtung Sonnenschein ET Solar Taupunkt Windchill Windben Empfang
29.12.2016 00:00 3,2 C 3,2 C 3,2 C 79 % 1042,2 hPa 0,0 l/m 0,0 km/h (0 Bft) W-SW 247 0 min 0,000 mm 0 W/m -0,1 C 3,2 C 1,6 km/h (1 Bft) 97 %
29.12.2016 00:10 3,1 C 3,1 C 3,2 C 79 % 1042,2 hPa 0,0 l/m 0,0 km/h (0 Bft) N 0 0 min 0,000 mm 0 W/m -0,2 C 3,1 C 0,0 km/h (0 Bft) 97 %
29.12.2016 00:20 3,1 C 3,1 C 3,1 C 79 % 1042,1 hPa 0,0 l/m 0,0 km/h (0 Bft) N 0 0 min 0,000 mm 0 W/m -0,2 C 3,1 C 0,0 km/h (0 Bft) 98 %
29.12.2016 00:30 2,9 C 2,9 C 3,1 C 80 % 1042,0 hPa 0,0 l/m 0,0 km/h (0 Bft) N 0 0 min 0,000 mm 0 W/m -0,2 C 2,9 C 0,0 km/h (0 Bft) 97 %
29.12.2016 00:40 2,8 C 2,8 C 2,9 C 79 % 1042,0 hPa 0,0 l/m 0,0 km/h (0 Bft) W-SW 247 0 min 0,000 mm 0 W/m -0,5 C 2,8 C 4,8 km/h (1 Bft) 98 %
29.12.2016 00:50 2,8 C 2,8 C 2,8 C 80 % 1041,9 hPa 0,0 l/m 0,0 km/h (0 Bft) W-NW 292 0 min 0,000 mm 0 W/m -0,3 C 2,8 C 3,2 km/h (1 Bft) 98 %
29.12.2016 01:00 2,7 C 2,7 C 2,8 C 80 % 1041,9 hPa 0,0 l/m 0,0 km/h (0 Bft) N 0 0 min 0,000 mm 0 W/m -0,4 C 2,7 C 0,0 km/h (0 Bft) 98 %
29.12.2016 01:10 2,6 C 2,6 C 2,7 C 82 % 1041,7 hPa 0,0 l/m 0,0 km/h (0 Bft) W-NW 292 0 min 0,000 mm 0 W/m -0,2 C 2,6 C 1,6 km/h (1 Bft) 98 %
29.12.2016 01:20 2,4 C 2,4 C 2,6 C 80 % 1041,6 hPa 0,0 l/m 0,0 km/h (0 Bft) N 0 0 min 0,000 mm 0 W/m -0,7 C 2,4 C 0,0 km/h (0 Bft) 98 %
29.12.2016 01:30 2,5 C 2,4 C 2,5 C 80 % 1041,5 hPa 0,0 l/m 0,0 km/h (0 Bft) N 360 0 min 0,000 mm 0 W/m -0,6 C 2,5 C 1,6 km/h (1 Bft) 93 %
29.12.2016 01:40 2,5 C 2,4 C 2,5 C 80 % 1041,3 hPa 0,0 l/m 0,0 km/h (0 Bft) N 0 0 min 0,000 mm 0 W/m -0,6 C 2,5 C 0,0 km/h (0 Bft) 92 %
29.12.2016 01:50 2,4 C 2,4 C 2,4 C 80 % 1041,3 hPa 0,0 l/m 0,0 km/h (0 Bft) N 0 0 min 0,000 mm 0 W/m -0,7 C 2,4 C 0,0 km/h (0 Bft) 98 %
29.12.2016 02:00 2,3 C 2,3 C 2,4 C 80 % 1041,3 hPa 0,0 l/m 0,0 km/h (0 Bft) N 0 0 min 0,000 mm 0 W/m -0,8 C 2,3 C 0,0 km/h (0 Bft) 98 %
29.12.2016 02:10 2,3 C 2,3 C 2,3 C 80 % 1041,0 hPa 0,0 l/m 0,0 km/h (0 Bft) N 0 0 min 0,000 mm 0 W/m -0,8 C 2,3 C 0,0 km/h (0 Bft) 98 %
29.12.2016 02:20 2,2 C 2,2 C 2,3 C 81 % 1041,1 hPa 0,0 l/m 0,0 km/h (0 Bft) N 0 0 min 0,000 mm 0 W/m -0,7 C 2,2 C 0,0 km/h (0 Bft) 98 %
29.12.2016 02:30 2,1 C 2,1 C 2,2 C 81 % 1041,2 hPa 0,0 l/m 0,0 km/h (0 Bft) N 0 0 min 0,000 mm 0 W/m -0,8 C 2,1 C 0,0 km/h (0 Bft) 96 %
29.12.2016 02:40 1,7 C 1,7 C 2,1 C 82 % 1041,2 hPa 0,0 l/m 0,0 km/h (0 Bft) N 0 0 min 0,000 mm 0 W/m -1,0 C 1,7 C 0,0 km/h (0 Bft) 98 %
29.12.2016 02:50 1,2 C 1,2 C 1,7 C 83 % 1041,1 hPa 0,0 l/m 0,0 km/h (0 Bft) N 0 0 min 0,000 mm 0 W/m -1,4 C 1,2 C 0,0 km/h (0 Bft) 97 %
29.12.2016 03:00 0,8 C 0,8 C 1,2 C 84 % 1041,1 hPa 0,0 l/m 0,0 km/h (0 Bft) N 0 0 min 0,000 mm 0 W/m -1,6 C 0,8 C 0,0 km/h (0 Bft) 98 %
29.12.2016 03:10 0,3 C 0,3 C 0,8 C 86 % 1041,1 hPa 0,0 l/m 0,0 km/h (0 Bft) N 0 0 min 0,000 mm 0 W/m -1,8 C 0,3 C 0,0 km/h (0 Bft) 88 %
29.12.2016 03:20 0,2 C 0,2 C 0,3 C 88 % 1041,0 hPa 0,0 l/m 0,0 km/h (0 Bft) N 360 0 min 0,000 mm 0 W/m -1,5 C 0,2 C 1,6 km/h (1 Bft) 97 %
29.12.2016 03:30 0,1 C 0,1 C 0,2 C 88 % 1041,0 hPa 0,0 l/m 0,0 km/h (0 Bft) N 0 0 min 0,000 mm 0 W/m -1,6 C 0,1 C 0,0 km/h (0 Bft) 98 %
29.12.2016 03:40 0,0 C 0,0 C 0,1 C 89 % 1040,8 hPa 0,0 l/m 0,0 km/h (0 Bft) N 0 0 min 0,000 mm 0 W/m -1,6 C 0,0 C 0,0 km/h (0 Bft) 97 %
29.12.2016 03:50 0,2 C 0,0 C 0,2 C 89 % 1040,7 hPa 0,0 l/m 0,0 km/h (0 Bft) N 0 0 min 0,000 mm 0 W/m -1,4 C 0,2 C 0,0 km/h (0 Bft) 98 %
29.12.2016 04:00 0,1 C 0,1 C 0,3 C 88 % 1040,7 hPa 0,0 l/m 0,0 km/h (0 Bft) N 0 0 min 0,000 mm 0 W/m -1,6 C 0,1 C 0,0 km/h (0 Bft) 97 %
29.12.2016 04:10 -0,3 C -0,4 C 0,1 C 88 % 1040,7 hPa 0,0 l/m 0,0 km/h (0 Bft) N 0 0 min 0,000 mm 0 W/m -2,0 C -0,3 C 0,0 km/h (0 Bft) 100 %
29.12.2016 04:20 -0,7 C -0,7 C -0,4 C 89 % 1040,7 hPa 0,0 l/m 0,0 km/h (0 Bft) N 0 0 min 0,000 mm 0 W/m -2,3 C -0,7 C 0,0 km/h (0 Bft) 99 %
29.12.2016 04:30 -1,1 C -1,1 C -0,7 C 90 % 1040,6 hPa 0,0 l/m 0,0 km/h (0 Bft) N 0 0 min 0,000 mm 0 W/m -2,5 C -1,1 C 0,0 km/h (0 Bft) 100 %
29.12.2016 04:40 -1,4 C -1,4 C -1,1 C 90 % 1040,6 hPa 0,0 l/m 0,0 km/h (0 Bft) N 0 0 min 0,000 mm 0 W/m -2,8 C -1,4 C 0,0 km/h (0 Bft) 100 %
29.12.2016 04:50 -1,6 C -1,6 C -1,4 C 91 % 1040,6 hPa 0,0 l/m 0,0 km/h (0 Bft) N 0 0 min 0,000 mm 0 W/m -2,9 C -1,6 C 0,0 km/h (0 Bft) 100 %
29.12.2016 05:00 -1,6 C -1,6 C -1,6 C 91 % 1040,6 hPa 0,0 l/m 0,0 km/h (0 Bft) N 0 0 min 0,000 mm 0 W/m -2,9 C -1,6 C 0,0 km/h (0 Bft) 100 %
29.12.2016 05:10 -1,7 C -1,7 C -1,6 C 91 % 1040,6 hPa 0,0 l/m 0,0 km/h (0 Bft) N 0 0 min 0,000 mm 0 W/m -3,0 C -1,7 C 0,0 km/h (0 Bft) 100 %
29.12.2016 05:20 -1,8 C -1,8 C -1,7 C 91 % 1040,6 hPa 0,0 l/m 0,0 km/h (0 Bft) N 0 0 min 0,000 mm 0 W/m -3,1 C -1,8 C 0,0 km/h (0 Bft) 100 %
29.12.2016 05:30 -1,9 C -1,9 C -1,8 C 92 % 1040,6 hPa 0,0 l/m 0,0 km/h (0 Bft) N 0 0 min 0,000 mm 0 W/m -3,0 C -1,9 C 0,0 km/h (0 Bft) 100 %
29.12.2016 05:40 -2,1 C -2,1 C -1,9 C 92 % 1040,6 hPa 0,0 l/m 0,0 km/h (0 Bft) N-NO 22 0 min 0,000 mm 0 W/m -3,2 C -2,1 C 1,6 km/h (1 Bft) 100 %
29.12.2016 05:50 -2,2 C -2,3 C -2,1 C 92 % 1040,6 hPa 0,0 l/m 0,0 km/h (0 Bft) N 0 0 min 0,000 mm 0 W/m -3,3 C -2,2 C 0,0 km/h (0 Bft) 100 %
29.12.2016 06:00 -2,2 C -2,3 C -2,2 C 92 % 1040,6 hPa 0,0 l/m 0,0 km/h (0 Bft) N 0 0 min 0,000 mm 0 W/m -3,3 C -2,2 C 0,0 km/h (0 Bft) 100 %
29.12.2016 06:10 -1,8 C -2,2 C -1,8 C 92 % 1040,5 hPa 0,0 l/m 0,0 km/h (0 Bft) N-NO 22 0 min 0,000 mm 0 W/m -2,9 C -1,8 C 6,4 km/h (2 Bft) 100 %
29.12.2016 06:20 -1,2 C -1,8 C -1,2 C 92 % 1040,6 hPa 0,0 l/m 0,0 km/h (0 Bft) O-NO 67 0 min 0,000 mm 0 W/m -2,3 C -1,2 C 4,8 km/h (1 Bft) 99 %
29.12.2016 06:30 -0,8 C -1,2 C -0,8 C 92 % 1040,5 hPa 0,0 l/m 0,0 km/h (0 Bft) N 0 0 min 0,000 mm 0 W/m -1,9 C -0,8 C 0,0 km/h (0 Bft) 100 %
29.12.2016 06:40 -0,6 C -0,8 C -0,6 C 92 % 1040,4 hPa 0,0 l/m 0,0 km/h (0 Bft) O-SO 112 0 min 0,000 mm 0 W/m -1,7 C -0,6 C 4,8 km/h (1 Bft) 100 %
29.12.2016 06:50 -0,5 C -0,6 C -0,5 C 92 % 1040,4 hPa 0,0 l/m 0,0 km/h (0 Bft) O-SO 112 0 min 0,000 mm 0 W/m -1,6 C -0,5 C 1,6 km/h (1 Bft) 91 %
29.12.2016 07:00 -0,4 C -0,5 C -0,4 C 92 % 1040,5 hPa 0,0 l/m 0,0 km/h (0 Bft) O-SO 112 0 min 0,000 mm 0 W/m -1,5 C -0,4 C 4,8 km/h (1 Bft) 100 %
29.12.2016 07:10 -0,6 C -0,6 C -0,4 C 92 % 1040,6 hPa 0,0 l/m 0,0 km/h (0 Bft) O-SO 112 0 min 0,000 mm 0 W/m -1,7 C -0,6 C 3,2 km/h (1 Bft) 100 %
29.12.2016 07:20 -0,1 C -0,6 C -0,1 C 92 % 1040,7 hPa 0,0 l/m 3,2 km/h (1 Bft) O 90 0 min 0,000 mm 0 W/m -1,2 C -0,1 C 9,7 km/h (2 Bft) 100 %
29.12.2016 07:30 0,1 C -0,1 C 0,1 C 92 % 1040,7 hPa 0,0 l/m 4,8 km/h (1 Bft) O-SO 112 0 min 0,000 mm 0 W/m -1,0 C 0,1 C 16,1 km/h (3 Bft) 100 %
29.12.2016 07:40 0,2 C 0,1 C 0,2 C 92 % 1040,8 hPa 0,0 l/m 3,2 km/h (1 Bft) O 90 0 min 0,000 mm 0 W/m -0,9 C 0,2 C 12,9 km/h (3 Bft) 100 %
29.12.2016 07:50 0,2 C 0,2 C 0,3 C 92 % 1040,7 hPa 0,0 l/m 1,6 km/h (1 Bft) O 90 0 min 0,000 mm 0 W/m -0,9 C 0,2 C 11,3 km/h (2 Bft) 99 %
29.12.2016 08:00 0,2 C 0,2 C 0,2 C 92 % 1040,6 hPa 0,0 l/m 1,6 km/h (1 Bft) O 90 0 min 0,000 mm 0 W/m -0,9 C 0,2 C 17,7 km/h (3 Bft) 100 %
29.12.2016 08:10 0,0 C 0,0 C 0,2 C 92 % 1040,7 hPa 0,0 l/m 0,0 km/h (0 Bft) O 90 0 min 0,000 mm 0 W/m -1,1 C 0,0 C 3,2 km/h (1 Bft) 91 %
29.12.2016 08:20 -0,2 C -0,2 C 0,0 C 92 % 1040,8 hPa 0,0 l/m 0,0 km/h (0 Bft) N 0 0 min 0,000 mm 0 W/m -1,3 C -0,2 C 0,0 km/h (0 Bft) 100 %
29.12.2016 08:30 -0,3 C -0,3 C -0,2 C 92 % 1040,7 hPa 0,0 l/m 0,0 km/h (0 Bft) O 90 0 min 0,000 mm 9 W/m -1,4 C -0,3 C 4,8 km/h (1 Bft) 100 %
29.12.2016 08:40 -0,4 C -0,4 C -0,3 C 92 % 1040,8 hPa 0,0 l/m 0,0 km/h (0 Bft) N 0 0 min 0,000 mm 14 W/m -1,5 C -0,4 C 0,0 km/h (0 Bft) 100 %
29.12.2016 08:50 -0,4 C -0,4 C -0,4 C 92 % 1040,7 hPa 0,0 l/m 0,0 km/h (0 Bft) N 0 0 min 0,000 mm 19 W/m -1,5 C -0,4 C 0,0 km/h (0 Bft) 100 %
29.12.2016 09:00 -0,5 C -0,5 C -0,4 C 92 % 1040,7 hPa 0,0 l/m 0,0 km/h (0 Bft) N 0 0 min 0,000 mm 21 W/m -1,6 C -0,5 C 0,0 km/h (0 Bft) 100 %
29.12.2016 09:10 -0,5 C -0,5 C -0,4 C 92 % 1040,8 hPa 0,0 l/m 0,0 km/h (0 Bft) N 0 0 min 0,000 mm 35 W/m -1,6 C -0,5 C 0,0 km/h (0 Bft) 100 %
29.12.2016 09:20 -0,2 C -0,5 C -0,2 C 92 % 1040,9 hPa 0,0 l/m 0,0 km/h (0 Bft) N 0 0 min 0,000 mm 83 W/m -1,3 C -0,2 C 0,0 km/h (0 Bft) 99 %
29.12.2016 09:30 0,2 C -0,5 C 0,2 C 92 % 1040,8 hPa 0,0 l/m 0,0 km/h (0 Bft) O 83 0 min 0,000 mm 98 W/m -0,9 C 0,2 C 0,0 km/h (0 Bft) 98 %
29.12.2016 09:40 0,7 C 0,2 C 0,7 C 92 % 1040,9 hPa 0,0 l/m 0,0 km/h (0 Bft) O 83 0 min 0,000 mm 121 W/m -0,4 C 0,7 C 0,0 km/h (0 Bft) 98 %
29.12.2016 09:50 1,2 C 0,7 C 1,2 C 92 % 1041,0 hPa 0,0 l/m 0,0 km/h (0 Bft) O 83 0 min 0,000 mm 141 W/m 0,0 C 1,2 C 0,0 km/h (0 Bft) 97 %
29.12.2016 10:00 1,6 C 1,2 C 1,6 C 92 % 1041,0 hPa 0,0 l/m 0,0 km/h (0 Bft) O 82 10 min 0,025 mm 156 W/m 0,4 C 1,6 C 0,0 km/h (0 Bft) 97 %
29.12.2016 10:10 2,2 C 1,6 C 2,2 C 92 % 1041,0 hPa 0,0 l/m 0,0 km/h (0 Bft) O 81 10 min 0,000 mm 172 W/m 1,0 C 2,2 C 0,0 km/h (0 Bft) 97 %
29.12.2016 10:20 2,7 C 2,2 C 2,7 C 91 % 1041,1 hPa 0,0 l/m 0,0 km/h (0 Bft) O 96 10 min 0,000 mm 188 W/m 1,4 C 2,7 C 1,6 km/h (1 Bft) 98 %
29.12.2016 10:30 2,9 C 2,7 C 2,9 C 89 % 1041,1 hPa 0,0 l/m 0,0 km/h (0 Bft) O 96 10 min 0,000 mm 202 W/m 1,3 C 2,9 C 0,0 km/h (0 Bft) 97 %
29.12.2016 10:40 3,0 C 2,8 C 3,0 C 89 % 1041,1 hPa 0,0 l/m 0,0 km/h (0 Bft) O 96 10 min 0,000 mm 216 W/m 1,4 C 3,0 C 0,0 km/h (0 Bft) 97 %
29.12.2016 10:50 3,2 C 3,0 C 3,2 C 87 % 1041,0 hPa 0,0 l/m 0,0 km/h (0 Bft) NO 37 10 min 0,000 mm 236 W/m 1,2 C 3,2 C 0,0 km/h (0 Bft) 98 %
29.12.2016 11:00 3,3 C 3,2 C 3,3 C 87 % 1040,9 hPa 0,0 l/m 0,0 km/h (0 Bft) O 83 10 min 0,077 mm 248 W/m 1,3 C 3,3 C 1,6 km/h (1 Bft) 99 %
29.12.2016 11:10 3,7 C 3,3 C 3,7 C 87 % 1040,9 hPa 0,0 l/m 1,0 km/h (0 Bft) SW 217 10 min 0,000 mm 257 W/m 1,7 C 3,7 C 11,3 km/h (2 Bft) 100 %
29.12.2016 11:20 4,1 C 3,7 C 4,1 C 85 % 1040,8 hPa 0,0 l/m 0,1 km/h (0 Bft) W-SW 238 10 min 0,000 mm 265 W/m 1,8 C 4,1 C 3,2 km/h (1 Bft) 100 %
29.12.2016 11:30 4,3 C 4,1 C 4,3 C 83 % 1040,7 hPa 0,0 l/m 1,0 km/h (0 Bft) O 100 10 min 0,000 mm 271 W/m 1,7 C 4,3 C 11,3 km/h (2 Bft) 100 %
29.12.2016 11:40 4,6 C 4,3 C 4,6 C 83 % 1040,5 hPa 0,0 l/m 0,7 km/h (0 Bft) O-SO 112 10 min 0,000 mm 193 W/m 2,0 C 4,6 C 8,0 km/h (2 Bft) 100 %
29.12.2016 11:50 4,8 C 4,6 C 4,8 C 82 % 1040,5 hPa 0,0 l/m 0,2 km/h (0 Bft) O-SO 115 10 min 0,000 mm 248 W/m 2,0 C 4,8 C 4,8 km/h (1 Bft) 100 %
29.12.2016 12:00 4,9 C 4,8 C 4,9 C 82 % 1040,3 hPa 0,0 l/m 0,7 km/h (0 Bft) O-SO 117 10 min 0,101 mm 285 W/m 2,1 C 4,9 C 8,0 km/h (2 Bft) 100 %
29.12.2016 12:10 4,9 C 4,9 C 5,0 C 81 % 1040,2 hPa 0,0 l/m 4,0 km/h (1 Bft) O-SO 117 10 min 0,000 mm 265 W/m 1,9 C 4,9 C 14,5 km/h (3 Bft) 100 %
29.12.2016 12:20 5,1 C 4,9 C 5,1 C 81 % 1040,2 hPa 0,0 l/m 0,9 km/h (0 Bft) N 350 10 min 0,000 mm 279 W/m 2,1 C 5,1 C 8,0 km/h (2 Bft) 100 %
29.12.2016 12:30 5,1 C 5,1 C 5,1 C 80 % 1040,1 hPa 0,0 l/m 4,2 km/h (1 Bft) SO 126 10 min 0,000 mm 232 W/m 1,9 C 5,1 C 14,5 km/h (3 Bft) 91 %
29.12.2016 12:40 5,2 C 5,1 C 5,2 C 80 % 1039,9 hPa 0,0 l/m 3,2 km/h (1 Bft) O 88 10 min 0,000 mm 272 W/m 2,0 C 5,2 C 17,7 km/h (3 Bft) 100 %
29.12.2016 12:50 5,4 C 5,2 C 5,4 C 80 % 1039,9 hPa 0,0 l/m 3,3 km/h (1 Bft) O-NO 72 10 min 0,000 mm 258 W/m 2,2 C 5,4 C 19,3 km/h (3 Bft) 100 %
29.12.2016 13:00 5,6 C 5,4 C 5,6 C 79 % 1039,8 hPa 0,0 l/m 1,0 km/h (0 Bft) O-SO 111 10 min 0,102 mm 279 W/m 2,3 C 5,6 C 11,3 km/h (2 Bft) 100 %
29.12.2016 13:10 5,8 C 5,6 C 5,8 C 80 % 1039,7 hPa 0,0 l/m 0,9 km/h (0 Bft) N-NO 23 10 min 0,000 mm 223 W/m 2,6 C 5,8 C 11,3 km/h (2 Bft) 100 %
29.12.2016 13:20 5,9 C 5,8 C 5,9 C 79 % 1039,5 hPa 0,0 l/m 1,2 km/h (1 Bft) O-SO 111 10 min 0,000 mm 241 W/m 2,5 C 5,9 C 9,7 km/h (2 Bft) 100 %
29.12.2016 13:30 5,7 C 5,7 C 5,9 C 78 % 1039,4 hPa 0,0 l/m 3,1 km/h (1 Bft) O-SO 110 0 min 0,000 mm 130 W/m 2,2 C 5,7 C 17,7 km/h (3 Bft) 100 %
29.12.2016 13:40 5,7 C 5,7 C 5,7 C 78 % 1039,3 hPa 0,0 l/m 1,7 km/h (1 Bft) O 86 10 min 0,000 mm 207 W/m 2,2 C 5,7 C 14,5 km/h (3 Bft) 100 %
29.12.2016 13:50 5,8 C 5,7 C 5,8 C 79 % 1039,0 hPa 0,0 l/m 2,8 km/h (1 Bft) S-SO 149 0 min 0,000 mm 93 W/m 2,4 C 5,8 C 11,3 km/h (2 Bft) 100 %
29.12.2016 14:00 5,8 C 5,8 C 5,8 C 78 % 1039,0 hPa 0,0 l/m 3,9 km/h (1 Bft) O-NO 65 0 min 0,076 mm 123 W/m 2,3 C 5,8 C 19,3 km/h (3 Bft) 99 %
29.12.2016 14:10 5,9 C 5,8 C 5,9 C 78 % 1039,0 hPa 0,0 l/m 1,2 km/h (1 Bft) O 91 10 min 0,000 mm 188 W/m 2,4 C 5,9 C 11,3 km/h (2 Bft) 92 %
29.12.2016 14:20 6,1 C 5,9 C 6,1 C 77 % 1038,9 hPa 0,0 l/m 0,7 km/h (0 Bft) O-NO 63 10 min 0,000 mm 174 W/m 2,4 C 6,1 C 9,7 km/h (2 Bft) 100 %
29.12.2016 14:30 6,2 C 6,1 C 6,2 C 77 % 1038,9 hPa 0,0 l/m 0,8 km/h (0 Bft) O 84 10 min 0,000 mm 172 W/m 2,5 C 6,2 C 8,0 km/h (2 Bft) 100 %
29.12.2016 14:40 6,2 C 6,1 C 6,2 C 75 % 1038,9 hPa 0,0 l/m 1,6 km/h (1 Bft) O 87 0 min 0,000 mm 151 W/m 2,1 C 6,2 C 17,7 km/h (3 Bft) 100 %
29.12.2016 14:50 6,2 C 6,2 C 6,2 C 76 % 1038,9 hPa 0,0 l/m 1,5 km/h (1 Bft) O-SO 104 0 min 0,000 mm 120 W/m 2,3 C 6,2 C 9,7 km/h (2 Bft) 99 %
29.12.2016 15:00 6,1 C 6,1 C 6,2 C 76 % 1038,9 hPa 0,0 l/m 0,0 km/h (0 Bft) O 93 0 min 0,051 mm 83 W/m 2,2 C 6,1 C 1,6 km/h (1 Bft) 100 %
29.12.2016 15:10 6,0 C 6,0 C 6,2 C 76 % 1038,9 hPa 0,0 l/m 0,0 km/h (0 Bft) O 93 0 min 0,000 mm 26 W/m 2,1 C 6,0 C 0,0 km/h (0 Bft) 100 %
29.12.2016 15:20 5,8 C 5,8 C 6,0 C 77 % 1039,0 hPa 0,0 l/m 0,1 km/h (0 Bft) N 360 0 min 0,000 mm 25 W/m 2,1 C 5,8 C 4,8 km/h (1 Bft) 100 %
29.12.2016 15:30 5,7 C 5,7 C 5,8 C 75 % 1039,0 hPa 0,0 l/m 0,7 km/h (0 Bft) O-NO 75 0 min 0,000 mm 23 W/m 1,6 C 5,7 C 9,7 km/h (2 Bft) 91 %
29.12.2016 15:40 5,4 C 5,4 C 5,7 C 76 % 1039,0 hPa 0,0 l/m 0,4 km/h (0 Bft) O-SO 111 0 min 0,000 mm 21 W/m 1,5 C 5,4 C 8,0 km/h (2 Bft) 100 %
29.12.2016 15:50 5,2 C 5,2 C 5,4 C 77 % 1038,9 hPa 0,0 l/m 0,8 km/h (0 Bft) NO 46 0 min 0,000 mm 19 W/m 1,5 C 5,2 C 8,0 km/h (2 Bft) 100 %
29.12.2016 16:00 5,1 C 5,1 C 5,2 C 77 % 1039,0 hPa 0,0 l/m 0,0 km/h (0 Bft) O-NO 76 0 min 0,025 mm 16 W/m 1,4 C 5,1 C 1,6 km/h (1 Bft) 100 %
29.12.2016 16:10 4,8 C 4,8 C 5,1 C 78 % 1038,8 hPa 0,0 l/m 0,2 km/h (0 Bft) SO 144 0 min 0,000 mm 12 W/m 1,3 C 4,8 C 4,8 km/h (1 Bft) 99 %
29.12.2016 16:20 4,6 C 4,6 C 4,8 C 79 % 1038,8 hPa 0,0 l/m 0,0 km/h (0 Bft) SO 125 0 min 0,000 mm 9 W/m 1,3 C 4,6 C 1,6 km/h (1 Bft) 100 %
29.12.2016 16:30 4,3 C 4,3 C 4,6 C 79 % 1038,9 hPa 0,0 l/m 0,2 km/h (0 Bft) SO 126 0 min 0,000 mm 0 W/m 1,0 C 4,3 C 4,8 km/h (1 Bft) 100 %
29.12.2016 16:40 4,0 C 4,0 C 4,3 C 80 % 1038,9 hPa 0,0 l/m 0,3 km/h (0 Bft) O-SO 122 0 min 0,000 mm 0 W/m 0,9 C 4,0 C 9,7 km/h (2 Bft) 100 %
29.12.2016 16:50 3,8 C 3,8 C 4,0 C 79 % 1038,9 hPa 0,0 l/m 0,5 km/h (0 Bft) O 100 0 min 0,000 mm 0 W/m 0,5 C 3,8 C 6,4 km/h (2 Bft) 100 %
29.12.2016 17:00 3,6 C 3,6 C 3,8 C 80 % 1038,9 hPa 0,0 l/m 0,0 km/h (0 Bft) O 98 0 min 0,000 mm 0 W/m 0,5 C 3,6 C 0,0 km/h (0 Bft) 100 %
29.12.2016 17:10 3,3 C 3,3 C 3,6 C 80 % 1039,0 hPa 0,0 l/m 0,0 km/h (0 Bft) O 98 0 min 0,000 mm 0 W/m 0,2 C 3,3 C 0,0 km/h (0 Bft) 100 %
29.12.2016 17:20 3,0 C 3,0 C 3,3 C 82 % 1039,0 hPa 0,0 l/m 0,0 km/h (0 Bft) O 98 0 min 0,000 mm 0 W/m 0,2 C 3,0 C 0,0 km/h (0 Bft) 99 %
29.12.2016 17:30 2,8 C 2,7 C 3,0 C 82 % 1038,9 hPa 0,0 l/m 0,0 km/h (0 Bft) O 98 0 min 0,000 mm 0 W/m 0,0 C 2,8 C 0,0 km/h (0 Bft) 100 %
29.12.2016 17:40 2,5 C 2,5 C 2,8 C 83 % 1038,9 hPa 0,0 l/m 0,0 km/h (0 Bft) O 98 0 min 0,000 mm 0 W/m -0,1 C 2,5 C 0,0 km/h (0 Bft) 100 %
29.12.2016 17:50 2,3 C 2,3 C 2,5 C 85 % 1038,9 hPa 0,0 l/m 0,0 km/h (0 Bft) O 98 0 min 0,000 mm 0 W/m 0,0 C 2,3 C 0,0 km/h (0 Bft) 100 %
29.12.2016 18:00 2,1 C 2,1 C 2,3 C 85 % 1039,1 hPa 0,0 l/m 0,0 km/h (0 Bft) O 98 0 min 0,000 mm 0 W/m -0,2 C 2,1 C 0,0 km/h (0 Bft) 100 %
29.12.2016 18:10 2,0 C 2,0 C 2,1 C 86 % 1039,1 hPa 0,0 l/m 0,0 km/h (0 Bft) O 98 0 min 0,000 mm 0 W/m -0,1 C 2,0 C 0,0 km/h (0 Bft) 100 %
29.12.2016 18:20 1,8 C 1,8 C 2,0 C 86 % 1039,1 hPa 0,0 l/m 0,0 km/h (0 Bft) O 98 0 min 0,000 mm 0 W/m -0,3 C 1,8 C 0,0 km/h (0 Bft) 100 %
29.12.2016 18:30 1,6 C 1,6 C 1,8 C 86 % 1039,0 hPa 0,0 l/m 0,0 km/h (0 Bft) O 98 0 min 0,000 mm 0 W/m -0,5 C 1,6 C 0,0 km/h (0 Bft) 100 %
29.12.2016 18:40 1,4 C 1,4 C 1,6 C 87 % 1039,0 hPa 0,0 l/m 0,2 km/h (0 Bft) O-NO 74 0 min 0,000 mm 0 W/m -0,5 C 1,4 C 4,8 km/h (1 Bft) 100 %
29.12.2016 18:50 1,2 C 1,2 C 1,4 C 88 % 1038,9 hPa 0,0 l/m 0,0 km/h (0 Bft) O-NO 74 0 min 0,000 mm 0 W/m -0,6 C 1,2 C 0,0 km/h (0 Bft) 100 %
29.12.2016 19:00 0,9 C 0,9 C 1,2 C 89 % 1038,8 hPa 0,0 l/m 0,0 km/h (0 Bft) O-NO 74 0 min 0,000 mm 0 W/m -0,7 C 0,9 C 0,0 km/h (0 Bft) 99 %
29.12.2016 19:10 0,8 C 0,8 C 0,9 C 90 % 1038,9 hPa 0,0 l/m 0,0 km/h (0 Bft) O-NO 74 0 min 0,000 mm 0 W/m -0,6 C 0,8 C 0,0 km/h (0 Bft) 100 %
29.12.2016 19:20 0,8 C 0,8 C 0,8 C 90 % 1038,9 hPa 0,0 l/m 0,0 km/h (0 Bft) O-NO 74 0 min 0,000 mm 0 W/m -0,6 C 0,8 C 0,0 km/h (0 Bft) 100 %
29.12.2016 19:30 0,7 C 0,7 C 0,8 C 90 % 1038,9 hPa 0,0 l/m 0,0 km/h (0 Bft) O-NO 74 0 min 0,000 mm 0 W/m -0,7 C 0,7 C 1,6 km/h (1 Bft) 99 %
29.12.2016 19:40 0,5 C 0,5 C 0,7 C 90 % 1038,8 hPa 0,0 l/m 0,0 km/h (0 Bft) O-NO 74 0 min 0,000 mm 0 W/m -0,9 C 0,5 C 0,0 km/h (0 Bft) 100 %
29.12.2016 19:50 0,3 C 0,3 C 0,6 C 90 % 1038,8 hPa 0,0 l/m 0,0 km/h (0 Bft) O-NO 74 0 min 0,000 mm 0 W/m -1,1 C 0,3 C 0,0 km/h (0 Bft) 100 %
29.12.2016 20:00 0,2 C 0,2 C 0,3 C 91 % 1038,9 hPa 0,0 l/m 0,0 km/h (0 Bft) O-NO 74 0 min 0,000 mm 0 W/m -1,1 C 0,2 C 0,0 km/h (0 Bft) 100 %
29.12.2016 20:10 0,1 C 0,0 C 0,2 C 91 % 1038,8 hPa 0,0 l/m 0,0 km/h (0 Bft) O-NO 74 0 min 0,000 mm 0 W/m -1,2 C 0,1 C 0,0 km/h (0 Bft) 99 %
29.12.2016 20:20 -0,1 C -0,1 C 0,1 C 91 % 1038,9 hPa 0,0 l/m 0,0 km/h (0 Bft) O-NO 74 0 min 0,000 mm 0 W/m -1,4 C -0,1 C 0,0 km/h (0 Bft) 99 %
29.12.2016 20:30 -0,2 C -0,2 C -0,1 C 91 % 1038,9 hPa 0,0 l/m 0,0 km/h (0 Bft) O-NO 74 0 min 0,000 mm 0 W/m -1,5 C -0,2 C 0,0 km/h (0 Bft) 99 %
29.12.2016 20:40 -0,3 C -0,3 C -0,2 C 91 % 1038,7 hPa 0,0 l/m 0,0 km/h (0 Bft) O-NO 74 0 min 0,000 mm 0 W/m -1,6 C -0,3 C 0,0 km/h (0 Bft) 100 %
29.12.2016 20:50 -0,3 C -0,3 C -0,2 C 91 % 1038,9 hPa 0,0 l/m 0,0 km/h (0 Bft) O-NO 74 0 min 0,000 mm 0 W/m -1,6 C -0,3 C 0,0 km/h (0 Bft) 100 %
29.12.2016 21:00 -0,4 C -0,4 C -0,3 C 91 % 1038,7 hPa 0,0 l/m 0,0 km/h (0 Bft) O-NO 74 0 min 0,000 mm 0 W/m -1,7 C -0,4 C 0,0 km/h (0 Bft) 99 %
29.12.2016 21:10 -0,4 C -0,4 C -0,4 C 92 % 1038,6 hPa 0,0 l/m 0,0 km/h (0 Bft) N 0 0 min 0,000 mm 0 W/m -1,5 C -0,4 C 0,0 km/h (0 Bft) 98 %
29.12.2016 21:20 -0,5 C -0,5 C -0,4 C 91 % 1038,6 hPa 0,0 l/m 0,0 km/h (0 Bft) N 0 0 min 0,000 mm 0 W/m -1,8 C -0,5 C 0,0 km/h (0 Bft) 86 %
29.12.2016 21:30 -0,6 C -0,6 C -0,5 C 91 % 1038,6 hPa 0,0 l/m 0,0 km/h (0 Bft) N 0 0 min 0,000 mm 0 W/m -1,9 C -0,6 C 0,0 km/h (0 Bft) 98 %
29.12.2016 21:40 -0,7 C -0,7 C -0,6 C 92 % 1038,6 hPa 0,0 l/m 0,0 km/h (0 Bft) O-NO 67 0 min 0,000 mm 0 W/m -1,8 C -0,7 C 1,6 km/h (1 Bft) 98 %
29.12.2016 21:50 -0,9 C -0,9 C -0,7 C 91 % 1038,5 hPa 0,0 l/m 0,0 km/h (0 Bft) O-NO 67 0 min 0,000 mm 0 W/m -2,2 C -0,9 C 3,2 km/h (1 Bft) 97 %
29.12.2016 22:00 -1,2 C -1,2 C -0,9 C 91 % 1038,5 hPa 0,0 l/m 0,0 km/h (0 Bft) N 0 0 min 0,000 mm 0 W/m -2,5 C -1,2 C 0,0 km/h (0 Bft) 97 %
29.12.2016 22:10 -1,3 C -1,3 C -1,2 C 92 % 1038,5 hPa 0,0 l/m 0,0 km/h (0 Bft) NO 45 0 min 0,000 mm 0 W/m -2,4 C -1,3 C 6,4 km/h (2 Bft) 98 %
29.12.2016 22:20 -1,2 C -1,3 C -1,2 C 92 % 1038,4 hPa 0,0 l/m 0,0 km/h (0 Bft) N-NO 22 0 min 0,000 mm 0 W/m -2,3 C -1,2 C 6,4 km/h (2 Bft) 98 %
29.12.2016 22:30 -1,2 C -1,2 C -1,2 C 92 % 1038,5 hPa 0,0 l/m 0,0 km/h (0 Bft) N-NO 22 0 min 0,000 mm 0 W/m -2,3 C -1,2 C 1,6 km/h (1 Bft) 97 %
29.12.2016 22:40 -1,3 C -1,3 C -1,2 C 92 % 1038,7 hPa 0,0 l/m 0,0 km/h (0 Bft) N-NO 22 0 min 0,000 mm 0 W/m -2,4 C -1,3 C 3,2 km/h (1 Bft) 97 %
29.12.2016 22:50 -1,3 C -1,3 C -1,3 C 92 % 1038,7 hPa 0,0 l/m 0,0 km/h (0 Bft) N 0 0 min 0,000 mm 0 W/m -2,4 C -1,3 C 0,0 km/h (0 Bft) 99 %
29.12.2016 23:00 -1,2 C -1,3 C -1,2 C 92 % 1038,7 hPa 0,0 l/m 0,0 km/h (0 Bft) N-NO 22 0 min 0,000 mm 0 W/m -2,3 C -1,2 C 8,0 km/h (2 Bft) 99 %
29.12.2016 23:10 -1,0 C -1,2 C -1,0 C 92 % 1038,8 hPa 0,0 l/m 0,0 km/h (0 Bft) N-NO 22 0 min 0,000 mm 0 W/m -2,1 C -1,0 C 3,2 km/h (1 Bft) 100 %
29.12.2016 23:20 -1,1 C -1,1 C -0,9 C 92 % 1038,7 hPa 0,0 l/m 0,0 km/h (0 Bft) N-NO 22 0 min 0,000 mm 0 W/m -2,2 C -1,1 C 4,8 km/h (1 Bft) 100 %
29.12.2016 23:30 -1,6 C -1,6 C -1,1 C 91 % 1038,7 hPa 0,0 l/m 0,0 km/h (0 Bft) N 360 0 min 0,000 mm 0 W/m -2,9 C -1,6 C 3,2 km/h (1 Bft) 100 %
29.12.2016 23:40 -1,8 C -1,9 C -1,6 C 91 % 1038,8 hPa 0,0 l/m 0,0 km/h (0 Bft) N-NW 337 0 min 0,000 mm 0 W/m -3,1 C -1,8 C 6,4 km/h (2 Bft) 100 %
29.12.2016 23:50 -2,0 C -2,0 C -1,9 C 92 % 1038,8 hPa 0,0 l/m 1,6 km/h (1 Bft) N-NW 337 0 min 0,000 mm 0 W/m -3,1 C -2,0 C 3,2 km/h (1 Bft) 100 %
_ Min-Zeit 05:50 05:50 06:00 14:40 22:20 - 00:00 - - - - - 05:50 05:50 00:10 21:20
Minimum _ -2,3 C -2,3 C -2,2 C 75 % 1038,4 hPa - 0,0 km/h (0 Bft) - - - - - -3,3 C -2,2 C 0,0 km/h (0 Bft) 86 %
_ Max-Zeit 14:30 14:50 14:30 05:30 00:00 00:00 07:30 - - 10:00 13:00 12:00 13:10 14:30 12:50 04:30
Maximum _ 6,2 C 6,2 C 6,2 C 92 % 1042,2 hPa 0,0 l/m 4,8 km/h
O-SO (1 Bft)
- - 10 min 0,102 mm 285 W/m 2,6 C 6,2 C 19,3 km/h
O-SO (3 Bft)
100 %
Durchschnitt _ 1,6 C 1,6 C 1,8 C 86 % 1040,0 hPa #0,0 l/m 0,4 km/h (0 Bft) O - #4:10 h #0,457 mm 148 W/m -0,5 C 1,6 C 3,6 km/h (1 Bft) 99 %
PRIVATE WETTERSTATION BILLIGHEIM-ALLFELD - www.neckar-odenwald-wetter.de - Holger Sonntag